Flight Track Log - Related Links

Times and Time Zones

All times are in EDT time to prevent confusion due to time zone crossing. See the AFR3846 flight status page for this flight to view local times or setup timezone preferences in your user account.

Time Position Orientation Groundspeed Altitude Reporting Facility
EDT Latitude Longitude Course Direction KTS MPH feet Rate Location/Type
Mon 05:16:00 AM 47.2208 -2.0692 172° South  Level Estimated
Mon 05:17:00 AM 47.1073 -2.0452 172° South  Level Estimated
Mon 05:17:05 AM 48.9976 2.5903 85° East 161 185 300  Level FlightAware ADS-B
Mon 05:17:18 AM 48.9983 2.6053 86° East 154 177 900 2,800 Climbing FlightAware ADS-B
Mon 05:17:35 AM 48.9991 2.6229 86° East 148 170 1,700 2,690 Climbing FlightAware ADS-B
Mon 05:17:47 AM 48.9996 2.6351 86° East 145 167 2,200 2,000 Climbing FlightAware ADS-B
Mon 05:18:02 AM 49.0003 2.6511 86° East 148 170 2,600 1,548 Climbing FlightAware ADS-B
Mon 05:18:18 AM 49.0014 2.6676 84° East 150 173 3,000 1,565 Climbing FlightAware ADS-B
Mon 05:18:25 AM 49.0018 2.6750 85° East 149 171 3,200 1,364 Climbing FlightAware ADS-B
Mon 05:18:40 AM 49.0025 2.6912 86° East 158 182 3,500 1,125 Climbing FlightAware ADS-B
Mon 05:18:57 AM 49.0032 2.7104 87° East 175 201 3,800 938 Climbing FlightAware ADS-B
Mon 05:19:12 AM 49.0042 2.7300 86° East 192 221 4,000 1,000 Climbing FlightAware ADS-B
Mon 05:19:15 AM 49.0046 2.7352 83° East 197 227 4,100 947 Climbing FlightAware ADS-B
Mon 05:19:31 AM 49.0066 2.7587 83° East 221 254 4,300 960 Climbing FlightAware ADS-B
Mon 05:19:40 AM 49.0075 2.7723 84° East 231 266 4,500 1,714 Climbing FlightAware ADS-B
Mon 05:19:45 AM 49.0073 2.7815 92° East 237 273 4,700 1,800 Climbing FlightAware ADS-B
Mon 05:19:50 AM 49.0067 2.7886 97° East 245 282 4,800 1,800 Climbing FlightAware ADS-B
Mon 05:20:05 AM 49.0042 2.8153 98° East 263 303 5,300 2,400 Climbing FlightAware ADS-B
Mon 05:20:20 AM 49.0011 2.8437 99° East 268 308 6,000 3,484 Climbing FlightAware ADS-B
Mon 05:20:36 AM 48.9973 2.8730 101° East 265 305 7,100 4,364 Climbing FlightAware ADS-B
Mon 05:20:42 AM 48.9946 2.8837 111° Southeast 259 298 7,600 4,364 Climbing FlightAware ADS-B
Mon 05:20:47 AM 48.9920 2.8905 120° Southeast 257 296 7,900 4,500 Climbing FlightAware ADS-B
Mon 05:20:50 AM 48.9893 2.8959 127° Southeast 258 297 8,200 3,750 Climbing FlightAware ADS-B
Mon 05:20:55 AM 48.9855 2.9016 136° Southeast 259 298 8,400 2,667 Climbing FlightAware ADS-B
Mon 05:20:59 AM 48.9811 2.9066 143° Southeast 264 304 8,600 2,400 Climbing FlightAware ADS-B
Mon 05:21:05 AM 48.9751 2.9114 152° Southeast 270 311 8,800 2,308 Climbing FlightAware ADS-B
Mon 05:21:12 AM 48.9663 2.9153 164° South 278 320 9,100 2,182 Climbing FlightAware ADS-B
Mon 05:21:16 AM 48.9617 2.9162 173° South 283 326 9,200 2,000 Climbing FlightAware ADS-B
Mon 05:21:21 AM 48.9547 2.9160 181° South 288 331 9,400 2,667 Climbing FlightAware ADS-B
Mon 05:21:25 AM 48.9494 2.9146 189° South 292 336 9,600 3,429 Climbing FlightAware ADS-B
Mon 05:21:28 AM 48.9455 2.9130 195° South 293 337 9,800 3,750 Climbing FlightAware ADS-B
Mon 05:21:33 AM 48.9393 2.9091 202° Southwest 296 341 10,100 3,333 Climbing FlightAware ADS-B
Mon 05:21:37 AM 48.9338 2.9043 210° Southwest 298 343 10,300 3,000 Climbing FlightAware ADS-B
Mon 05:21:41 AM 48.9295 2.8994 217° Southwest 301 346 10,500 2,400 Climbing FlightAware ADS-B
Mon 05:21:47 AM 48.9239 2.8913 224° Southwest 308 354 10,700 1,600 Climbing FlightAware ADS-B
Mon 05:21:56 AM 48.9157 2.8743 234° Southwest 323 372 10,900 2,108 Climbing FlightAware ADS-B
Mon 05:22:24 AM 48.8945 2.8170 241° Southwest 344 396 12,000 2,793 Climbing FlightAware ADS-B
Mon 05:22:54 AM 48.8708 2.7539 240° Southwest 345 397 13,600 2,900 Climbing FlightAware ADS-B
Mon 05:23:24 AM 48.8462 2.6897 240° Southwest 354 407 14,900 2,656 Climbing FlightAware ADS-B
Mon 05:23:55 AM 48.8205 2.6226 240° Southwest 363 418 16,300 2,681 Climbing FlightAware ADS-B
Mon 05:24:11 AM 48.8062 2.5867 239° Southwest 367 422 17,000 2,483 Climbing FlightAware ADS-B
Mon 05:24:24 AM 48.7910 2.5631 226° Southwest 365 420 17,500 2,222 Climbing FlightAware ADS-B
Mon 05:24:38 AM 48.7712 2.5463 209° Southwest 362 417 18,000 2,195 Climbing FlightAware ADS-B
Mon 05:25:05 AM 48.7287 2.5188 203° Southwest 370 426 19,000 2,100 Climbing FlightAware ADS-B
Mon 05:25:18 AM 48.7085 2.5097 196° South 371 427 19,400 2,087 Climbing FlightAware ADS-B
Mon 05:25:28 AM 48.6915 2.5050 190° South 371 427 19,800 2,250 Climbing FlightAware ADS-B
Mon 05:25:58 AM 48.6390 2.4932 188° South 381 438 20,900 2,643 Climbing FlightAware ADS-B
Mon 05:26:52 AM 48.5444 2.4716 189° South 384 442 23,500 2,745 Climbing FlightAware ADS-B
Mon 05:27:32 AM 48.4788 2.4608 186° South 356 410 25,200 2,400 Climbing FlightAware ADS-B
Mon 05:27:37 AM 48.4703 2.4623 173° South 358 412 25,300 947 Climbing FlightAware ADS-B
Mon 05:28:10 AM 48.4154 2.4711 174° South 379 436 25,800 750 Climbing FlightAware ADS-B
Mon 05:28:41 AM 48.3593 2.4788 175° South 399 459 26,100 1,031 Climbing FlightAware ADS-B
Mon 05:29:14 AM 48.2964 2.4873 175° South 409 471 26,900 1,219 Climbing FlightAware ADS-B
Mon 05:29:45 AM 48.2387 2.4960 174° South 422 486 27,400 1,091 Climbing FlightAware ADS-B
Mon 05:30:20 AM 48.1684 2.5046 175° South 433 498 28,100 1,083 Climbing FlightAware ADS-B
Mon 05:30:57 AM 48.1000 2.5110 176° South 437 503 28,700 1,537 Climbing FlightAware ADS-B
Mon 05:31:42 AM 48.0070 2.5210 176° South 432 497 30,200 1,694 Climbing FlightAware ADS-B
Mon 05:32:22 AM 47.9230 2.5300 176° South 445 512 31,100 1,059 Climbing FlightAware ADS-B
Mon 05:33:07 AM 47.8350 2.5390 176° South 460 529 31,700 1,050 Climbing FlightAware ADS-B
Mon 05:33:42 AM 47.7570 2.5470 176° South 461 531 32,500 1,333 Climbing FlightAware ADS-B
Mon 05:34:01 AM 47.7108 2.5515 176° South 463 533 32,900 1,015 Climbing FlightAware ADS-B
Mon 05:34:47 AM 47.6290 2.5600 176° South 465 535 33,600 1,426 Climbing FlightAware ADS-B
Mon 05:35:42 AM 47.5010 2.5730 176° South 452 520 35,300 1,831 Climbing FlightAware ADS-B
Mon 05:35:46 AM 47.4888 2.5742 176° South 452 520 35,400 947 Climbing FlightAware ADS-B
Mon 05:36:20 AM 47.4176 2.5815 176° South 453 521 35,900 1,026 Climbing FlightAware ADS-B
Mon 05:37:02 AM 47.3302 2.5904 176° South 450 518 36,700 759 Climbing FlightAware ADS-B
Mon 05:37:47 AM 47.2430 2.5990 176° South 455 524 37,000 340 Climbing FlightAware ADS-B
Mon 05:37:55 AM 47.2196 2.6017 176° South 450 518 37,000  Level FlightAware ADS-B
Mon 05:38:28 AM 47.1500 2.6086 176° South 468 539 37,000  Level FlightAware ADS-B
Mon 05:39:07 AM 47.0658 2.6171 176° South 473 544 37,000  Level FlightAware ADS-B
Mon 05:39:52 AM 46.9700 2.6270 176° South 471 542 37,000  Level FlightAware ADS-B
Mon 05:39:59 AM 46.9509 2.6286 177° South 471 542 37,000  Level FlightAware ADS-B
Mon 05:40:37 AM 46.8810 2.6360 176° South 471 542 37,000  Level FlightAware ADS-B
Mon 05:40:50 AM 46.8412 2.6396 176° South 471 542 37,000  Level FlightAware ADS-B
Mon 05:42:02 AM 46.6880 2.6550 176° South 474 545 37,000  Level FlightAware ADS-B
Mon 05:42:42 AM 46.6010 2.6600 178° South 474 545 37,000  Level FlightAware ADS-B
Mon 05:43:22 AM 46.5160 2.6650 178° South 474 545 37,000  Level FlightAware ADS-B
Mon 05:44:02 AM 46.4260 2.6700 178° South 475 547 37,000  Level FlightAware ADS-B
Mon 05:44:47 AM 46.3320 2.6750 178° South 474 545 37,000  Level FlightAware ADS-B
Mon 05:45:27 AM 46.2460 2.6800 178° South 471 542 37,000  Level FlightAware ADS-B
Mon 05:46:12 AM 46.1480 2.6860 178° South 470 541 37,000  Level FlightAware ADS-B
Mon 05:46:52 AM 46.0550 2.6910 178° South 470 541 37,000  Level FlightAware ADS-B
Mon 05:47:32 AM 45.9740 2.6950 178° South 470 541 37,000  Level FlightAware ADS-B
Mon 05:48:22 AM 45.8620 2.7020 178° South 469 540 37,000  Level FlightAware ADS-B
Mon 05:48:57 AM 45.7870 2.7060 178° South 469 540 37,000  Level FlightAware ADS-B
Mon 05:49:42 AM 45.6930 2.7110 178° South 472 543 37,000  Level FlightAware ADS-B
Mon 05:50:22 AM 45.6020 2.7160 178° South 476 548 37,000  Level FlightAware ADS-B
Mon 05:50:57 AM 45.5210 2.7210 178° South 478 550 37,000  Level FlightAware ADS-B
Mon 05:51:47 AM 45.4150 2.7270 178° South 478 550 37,000  Level FlightAware ADS-B
Mon 05:52:27 AM 45.3310 2.7310 178° South 478 550 37,000  Level FlightAware ADS-B
Mon 05:53:12 AM 45.2260 2.7370 178° South 480 552 37,000  Level FlightAware ADS-B
Mon 05:53:52 AM 45.1370 2.7420 178° South 482 555 37,000  Level FlightAware ADS-B
Mon 05:54:32 AM 45.0470 2.7470 178° South 483 556 37,000  Level FlightAware ADS-B
Mon 05:55:17 AM 44.9440 2.7520 178° South 484 557 37,000  Level FlightAware ADS-B
Mon 05:55:57 AM 44.8590 2.7570 178° South 485 558 37,000  Level FlightAware ADS-B
Mon 05:56:42 AM 44.7540 2.7630 178° South 484 557 37,000  Level FlightAware ADS-B
Mon 05:57:22 AM 44.6660 2.7670 178° South 484 557 37,000  Level FlightAware ADS-B
Mon 05:58:02 AM 44.5770 2.7720 178° South 483 556 37,000  Level FlightAware ADS-B
Mon 05:58:47 AM 44.4750 2.7780 178° South 485 558 37,000  Level FlightAware ADS-B
Mon 05:59:27 AM 44.3830 2.7830 178° South 485 558 37,000  Level FlightAware ADS-B
Mon 06:00:07 AM 44.2950 2.7870 178° South 483 556 37,000  Level FlightAware ADS-B
Mon 06:00:52 AM 44.1970 2.7920 178° South 483 556 37,000  Level FlightAware ADS-B
Mon 06:01:32 AM 44.1070 2.7970 178° South 484 557 37,000  Level FlightAware ADS-B
Mon 06:02:17 AM 44.0020 2.8030 178° South 485 558 37,000  Level FlightAware ADS-B
Mon 06:02:57 AM 43.9170 2.8070 178° South 485 558 37,000  Level FlightAware ADS-B
Mon 06:03:37 AM 43.8250 2.8120 178° South 485 558 37,000  Level FlightAware ADS-B
Mon 06:04:22 AM 43.7270 2.8170 178° South 485 558 37,000  Level FlightAware ADS-B
Mon 06:05:02 AM 43.6360 2.8220 178° South 486 559 37,000  Level FlightAware ADS-B
Mon 06:05:42 AM 43.5460 2.8260 178° South 487 560 37,000  Level FlightAware ADS-B
Mon 06:06:27 AM 43.4430 2.8320 178° South 487 560 37,000  Level FlightAware ADS-B
Mon 06:07:07 AM 43.3530 2.8360 178° South 488 562 37,000  Level FlightAware ADS-B
Mon 06:07:52 AM 43.2540 2.8410 178° South 490 564 37,000  Level FlightAware ADS-B
Mon 06:08:32 AM 43.1630 2.8460 178° South 490 564 37,000  Level FlightAware ADS-B
Mon 06:09:17 AM 43.0580 2.8510 178° South 489 563 37,000  Level FlightAware ADS-B
Mon 06:09:57 AM 42.9670 2.8560 178° South 490 564 37,000  Level FlightAware ADS-B
Mon 06:10:37 AM 42.8810 2.8600 178° South 490 564 37,000  Level FlightAware ADS-B
Mon 06:11:22 AM 42.7770 2.8700 176° South 494 568 37,000  Level FlightAware ADS-B
Mon 06:12:02 AM 42.6860 2.8960 168° South 495 570 37,000  Level FlightAware ADS-B
Mon 06:12:47 AM 42.5890 2.9360 163° South 497 572 37,000  Level FlightAware ADS-B
Mon 06:13:27 AM 42.5020 2.9740 162° South 497 572 37,000  Level FlightAware ADS-B
Mon 06:14:07 AM 42.4140 3.0110 163° South 496 571 37,000  Level FlightAware ADS-B
Mon 06:14:52 AM 42.3130 3.0540 163° South 497 572 37,000  Level FlightAware ADS-B
Mon 06:15:32 AM 42.2270 3.0910 162° South 495 570 37,000  Level FlightAware ADS-B
Mon 06:16:12 AM 42.1390 3.1280 163° South 496 571 37,000  Level FlightAware ADS-B
Mon 06:16:57 AM 42.0470 3.1670 163° South 496 571 37,000  Level FlightAware ADS-B
Mon 06:17:32 AM 41.9620 3.1920 168° South 495 570 37,000  Level FlightAware ADS-B
Mon 06:18:22 AM 41.8550 3.2030 176° South 493 567 37,000  Level FlightAware ADS-B
Mon 06:19:02 AM 41.7600 3.2000 181° South 493 567 37,000  Level FlightAware ADS-B
Mon 06:19:42 AM 41.6680 3.1950 182° South 494 568 37,000 71 Level FlightAware ADS-B
Mon 06:20:27 AM 41.5630 3.1900 182° South 495 570 37,100 424 Climbing FlightAware ADS-B
Mon 06:21:07 AM 41.4700 3.1860 182° South 495 570 37,600 857 Climbing FlightAware ADS-B
Mon 06:21:37 AM 41.4030 3.1830 182° South 492 566 38,100 857 Climbing FlightAware ADS-B
Mon 06:22:17 AM 41.3140 3.1790 182° South 489 563 38,600 635 Climbing FlightAware ADS-B
Mon 06:23:02 AM 41.2120 3.1740 182° South 486 559 39,000 282 Climbing FlightAware ADS-B
Mon 06:23:42 AM 41.1240 3.1700 182° South 487 560 39,000  Level FlightAware ADS-B
Mon 06:24:27 AM 41.0200 3.1650 182° South 487 560 39,000  Level FlightAware ADS-B
Mon 06:25:07 AM 40.9280 3.1610 182° South 486 559 39,000  Level FlightAware ADS-B
Mon 06:25:47 AM 40.8400 3.1560 182° South 486 559 39,000  Level FlightAware ADS-B
Mon 06:26:32 AM 40.7410 3.1520 182° South 486 559 39,000  Level FlightAware ADS-B
Mon 06:27:12 AM 40.6520 3.1480 182° South 486 559 39,000  Level FlightAware ADS-B
Mon 06:27:52 AM 40.5610 3.1440 182° South 486 559 39,000  Level FlightAware ADS-B
Mon 06:28:37 AM 40.4570 3.1390 182° South 486 559 39,000  Level FlightAware ADS-B
Mon 06:29:17 AM 40.3670 3.1350 182° South 486 559 39,000  Level FlightAware ADS-B
Mon 06:29:57 AM 40.2800 3.1310 182° South 486 559 39,000  Level FlightAware ADS-B
Mon 06:30:42 AM 40.1790 3.1260 182° South 486 559 39,000  Level FlightAware ADS-B
Mon 06:31:22 AM 40.0900 3.1220 182° South 486 559 39,000  Level FlightAware ADS-B
Mon 06:32:07 AM 39.9850 3.1110 185° South 483 556 39,000  Level FlightAware ADS-B
Mon 06:32:47 AM 39.8980 3.0820 194° South 480 552 39,000  Level FlightAware ADS-B
Mon 06:33:27 AM 39.8370 3.0480 203° Southwest 478 550 39,000  Level FlightAware ADS-B
Mon 06:34:12 AM 39.7360 2.9760 209° Southwest 476 548 39,000  Level FlightAware ADS-B
Mon 06:34:47 AM 39.6680 2.9270 209° Southwest 476 548 39,000  Level FlightAware ADS-B
Mon 06:35:37 AM 39.5700 2.8550 210° Southwest 477 549 39,000  Level FlightAware ADS-B
Mon 06:36:17 AM 39.4920 2.8010 208° Southwest 472 543 39,000  Level FlightAware ADS-B
Mon 06:37:02 AM 39.4010 2.7540 202° Southwest 476 548 39,000  Level FlightAware ADS-B
Mon 06:37:42 AM 39.3130 2.7260 194° South 477 549 39,000  Level FlightAware ADS-B
Mon 06:38:22 AM 39.2260 2.7020 192° South 477 549 39,000  Level FlightAware ADS-B
Mon 06:39:07 AM 39.1260 2.6750 192° South 478 550 39,000  Level FlightAware ADS-B
Mon 06:39:47 AM 39.0420 2.6530 191° South 479 551 39,000  Level FlightAware ADS-B
Mon 06:40:32 AM 38.9390 2.6260 192° South 480 552 39,000  Level FlightAware ADS-B
Mon 06:41:12 AM 38.8500 2.6020 192° South 489 563 39,000  Level FlightAware ADS-B
Mon 06:41:52 AM 38.7630 2.5790 192° South 490 564 39,000  Level FlightAware ADS-B
Mon 06:42:37 AM 38.6610 2.5520 192° South 489 563 39,000  Level FlightAware ADS-B
Mon 06:43:17 AM 38.5740 2.5290 192° South 480 552 39,000  Level FlightAware ADS-B
Mon 06:43:57 AM 38.4850 2.5060 191° South 480 552 39,000  Level FlightAware ADS-B
Mon 06:44:42 AM 38.3850 2.4800 192° South 479 551 39,000  Level FlightAware ADS-B
Mon 06:45:22 AM 38.2970 2.4570 192° South 478 550 39,000  Level FlightAware ADS-B
Mon 06:46:07 AM 38.1980 2.4310 192° South 477 549 39,000  Level FlightAware ADS-B
Mon 06:46:47 AM 38.1100 2.4070 192° South 475 547 39,000  Level FlightAware ADS-B
Mon 06:47:32 AM 38.0150 2.3750 195° South 480 552 39,000  Level FlightAware ADS-B
Mon 06:48:12 AM 37.9360 2.3490 195° South 480 552 39,000  Level FlightAware ADS-B
Mon 06:48:52 AM 37.8420 2.3170 195° South 481 554 39,000  Level FlightAware ADS-B
Mon 06:49:37 AM 37.7450 2.2850 195° South 482 555 39,000  Level FlightAware ADS-B
Mon 06:50:17 AM 37.6570 2.2560 195° South 483 556 39,000  Level FlightAware ADS-B
Mon 06:50:57 AM 37.5700 2.2270 195° South 485 558 39,000  Level FlightAware ADS-B
Mon 06:51:42 AM 37.4730 2.1950 195° South 485 558 39,000  Level FlightAware ADS-B
Mon 06:52:17 AM 37.4030 2.1720 195° South 484 557 39,000  Level FlightAware ADS-B
Mon 06:53:07 AM 37.2920 2.1360 194° South 482 555 39,000  Level FlightAware ADS-B
Mon 06:53:47 AM 37.2090 2.1090 195° South 482 555 39,000  Level FlightAware ADS-B
Mon 06:54:27 AM 37.1350 2.0860 194° South 482 555 39,000  Level FlightAware ADS-B
Mon 06:55:12 AM 37.0260 2.0500 195° South 482 555 39,000  Level FlightAware ADS-B
Mon 06:55:52 AM 36.9530 2.0270 194° South 482 555 39,000  Level FlightAware ADS-B
Mon 06:56:32 AM 36.8570 1.9950 195° South 480 552 39,000  Level FlightAware ADS-B
Mon 06:57:12 AM 36.7730 1.9680 194° South 480 552 39,000  Level FlightAware ADS-B
Mon 06:57:52 AM 36.6720 1.9350 195° South 478 550 39,000  Level FlightAware ADS-B
Mon 06:58:37 AM 36.5880 1.9090 194° South 478 550 39,000  Level FlightAware ADS-B
Mon 06:59:22 AM 36.4770 1.8720 195° South 485 558 39,000  Level FlightAware ADS-B
Mon 07:00:02 AM 36.3960 1.8460 194° South 478 550 39,000  Level FlightAware ADS-B
Mon 07:00:47 AM 36.2940 1.8130 195° South 480 552 39,000  Level FlightAware ADS-B
Mon 07:01:32 AM 36.1910 1.7800 194° South 480 552 39,000  Level FlightAware ADS-B
Mon 07:02:12 AM 36.1250 1.7600 194° South 480 552 39,000  Level FlightAware ADS-B
Mon 07:02:52 AM 36.0160 1.7250 195° South 485 558 39,000  Level FlightAware ADS-B
Mon 07:03:32 AM 35.9340 1.6990 194° South 485 558 39,000  Level FlightAware ADS-B
Mon 07:04:12 AM 35.8530 1.6740 194° South 485 558 39,000  Level FlightAware ADS-B
Mon 07:04:52 AM 35.7790 1.6510 194° South 485 558 39,000  Level FlightAware ADS-B
Mon 07:05:42 AM 35.6580 1.6120 195° South 485 558 39,000  Level FlightAware ADS-B
Mon 07:06:22 AM 35.5840 1.5900 194° South 485 558 39,000  Level FlightAware ADS-B
Mon 07:07:02 AM 35.5100 1.5670 194° South 485 558 39,000  Level FlightAware ADS-B
Mon 07:07:52 AM 35.4170 1.5390 194° South 485 558 39,000  Level FlightAware ADS-B
Mon 07:08:32 AM 35.3430 1.5160 194° South 485 558 39,000  Level FlightAware ADS-B
Mon 07:09:12 AM 35.2690 1.4930 194° South 485 558 39,000  Level FlightAware ADS-B
Mon 07:09:52 AM 35.1950 1.4710 194° South 485 558 39,000  Level FlightAware ADS-B
Mon 07:10:32 AM 35.1210 1.4480 194° South 485 558 39,000  Level FlightAware ADS-B
Mon 07:11:22 AM 35.0290 1.4200 194° South 485 558 39,000  Level FlightAware ADS-B
Mon 07:12:02 AM 34.9550 1.3980 194° South 485 558 39,000  Level FlightAware ADS-B
Mon 07:12:42 AM 34.8810 1.3750 194° South 485 558 39,000  Level FlightAware ADS-B
Mon 07:13:22 AM 34.8070 1.3530 194° South 485 558 39,000  Level FlightAware ADS-B
Mon 07:14:02 AM 34.7330 1.3300 194° South 485 558 39,000  Level FlightAware ADS-B
Mon 07:14:52 AM 34.6400 1.3020 194° South 485 558 39,000  Level FlightAware ADS-B
Mon 07:17:00 AM 34.3892 1.3246 176° South  Level Estimated
Mon 07:18:00 AM 34.2717 1.3352 176° South  Level Estimated
Mon 07:19:00 AM 34.1541 1.3457 176° South  Level Estimated
Mon 07:20:00 AM 34.0366 1.3562 176° South  Level Estimated
Mon 07:21:00 AM 33.9190 1.3667 176° South  Level Estimated
Mon 07:22:00 AM 33.8015 1.3771 176° South  Level Estimated
Mon 07:23:00 AM 33.6839 1.3875 176° South  Level Estimated
Mon 07:24:00 AM 33.5664 1.3979 176° South  Level Estimated
Mon 07:25:00 AM 33.4488 1.4083 176° South  Level Estimated
Mon 07:26:00 AM 33.3313 1.4186 176° South  Level Estimated
Mon 07:27:00 AM 33.2137 1.4289 176° South  Level Estimated
Mon 07:28:00 AM 33.0962 1.4392 176° South  Level Estimated
Mon 07:29:00 AM 32.9786 1.4494 176° South  Level Estimated
Mon 07:30:00 AM 32.8610 1.4597 176° South  Level Estimated
Mon 07:31:00 AM 32.7435 1.4698 176° South  Level Estimated
Mon 07:32:00 AM 32.6259 1.4800 176° South  Level Estimated
Mon 07:33:00 AM 32.5084 1.4902 176° South  Level Estimated
Mon 07:34:00 AM 32.3908 1.5003 176° South  Level Estimated
Mon 07:35:00 AM 32.2733 1.5104 176° South  Level Estimated
Mon 07:36:00 AM 32.1557 1.5204 176° South  Level Estimated
Mon 07:37:00 AM 32.0381 1.5304 176° South  Level Estimated
Mon 07:38:00 AM 31.9206 1.5405 176° South  Level Estimated
Mon 07:39:00 AM 31.8030 1.5504 176° South  Level Estimated
Mon 07:40:00 AM 31.6854 1.5604 176° South  Level Estimated
Mon 07:41:00 AM 31.5679 1.5703 176° South  Level Estimated
Mon 07:42:00 AM 31.4503 1.5802 176° South  Level Estimated
Mon 07:43:00 AM 31.3327 1.5901 176° South  Level Estimated
Mon 07:44:00 AM 31.2152 1.6000 176° South  Level Estimated
Mon 07:45:00 AM 31.0976 1.6098 176° South  Level Estimated
Mon 07:46:00 AM 30.9800 1.6196 176° South  Level Estimated
Mon 07:47:00 AM 30.8624 1.6294 176° South  Level Estimated
Mon 07:48:00 AM 30.7449 1.6392 176° South  Level Estimated
Mon 07:49:00 AM 30.6273 1.6489 176° South  Level Estimated
Mon 07:50:00 AM 30.5097 1.6586 176° South  Level Estimated
Mon 07:51:00 AM 30.3922 1.6683 176° South  Level Estimated
Mon 07:52:00 AM 30.2746 1.6780 176° South  Level Estimated
Mon 07:53:00 AM 30.1570 1.6876 176° South  Level Estimated
Mon 07:54:00 AM 30.0394 1.6972 176° South  Level Estimated
Mon 07:55:00 AM 29.9219 1.7068 176° South  Level Estimated
Mon 07:56:00 AM 29.8043 1.7164 176° South  Level Estimated
Mon 07:57:00 AM 29.6867 1.7260 176° South  Level Estimated
Mon 07:58:00 AM 29.5691 1.7355 176° South  Level Estimated
Mon 07:59:00 AM 29.4515 1.7450 176° South  Level Estimated
Mon 08:00:00 AM 29.3340 1.7545 176° South  Level Estimated
Mon 08:01:00 AM 29.2164 1.7639 176° South  Level Estimated
Mon 08:02:00 AM 29.0988 1.7734 176° South  Level Estimated
Mon 08:03:00 AM 28.9812 1.7828 176° South  Level Estimated
Mon 08:04:00 AM 28.8636 1.7922 176° South  Level Estimated
Mon 08:05:00 AM 28.7461 1.8016 176° South  Level Estimated
Mon 08:06:00 AM 28.6285 1.8109 176° South  Level Estimated
Mon 08:07:00 AM 28.5109 1.8203 176° South  Level Estimated
Mon 08:08:00 AM 28.3933 1.8296 176° South  Level Estimated
Mon 08:09:00 AM 28.2757 1.8389 176° South  Level Estimated
Mon 08:10:00 AM 28.1581 1.8482 176° South  Level Estimated
Mon 08:11:00 AM 28.0405 1.8574 176° South  Level Estimated
Mon 08:12:00 AM 27.9230 1.8666 176° South  Level Estimated
Mon 08:13:00 AM 27.8054 1.8758 176° South  Level Estimated
Mon 08:14:00 AM 27.6878 1.8850 176° South  Level Estimated
Mon 08:15:00 AM 27.5702 1.8942 176° South  Level Estimated
Mon 08:16:00 AM 27.4526 1.9033 176° South  Level Estimated
Mon 08:17:00 AM 27.3350 1.9125 176° South  Level Estimated
Mon 08:18:00 AM 27.2174 1.9216 176° South  Level Estimated
Mon 08:19:00 AM 27.0998 1.9307 176° South  Level Estimated
Mon 08:20:00 AM 26.9822 1.9398 176° South  Level Estimated
Mon 08:21:00 AM 26.8646 1.9488 176° South  Level Estimated
Mon 08:22:00 AM 26.7470 1.9579 176° South  Level Estimated
Mon 08:23:00 AM 26.6295 1.9669 176° South  Level Estimated
Mon 08:24:00 AM 26.5119 1.9759 176° South  Level Estimated
Mon 08:25:00 AM 26.3943 1.9849 176° South  Level Estimated
Mon 08:26:00 AM 26.2767 1.9938 176° South  Level Estimated
Mon 08:27:00 AM 26.1591 2.0028 176° South  Level Estimated
Mon 08:28:00 AM 26.0415 2.0117 176° South  Level Estimated
Mon 08:29:00 AM 25.9239 2.0206 176° South  Level Estimated
Mon 08:30:00 AM 25.8063 2.0295 176° South  Level Estimated
Mon 08:31:00 AM 25.6887 2.0384 176° South  Level Estimated
Mon 08:32:00 AM 25.5711 2.0473 176° South  Level Estimated
Mon 08:33:00 AM 25.4535 2.0561 176° South  Level Estimated
Mon 08:34:00 AM 25.3359 2.0649 176° South  Level Estimated
Mon 08:35:00 AM 25.2183 2.0737 176° South  Level Estimated
Mon 08:36:00 AM 25.1003 2.0826 176° South  Level Estimated
Mon 08:37:00 AM 24.9824 2.0914 176° South  Level Estimated
Mon 08:38:00 AM 24.8645 2.1001 176° South  Level Estimated
Mon 08:39:00 AM 24.7465 2.1089 176° South  Level Estimated
Mon 08:40:00 AM 24.6286 2.1176 176° South  Level Estimated
Mon 08:41:00 AM 24.5107 2.1264 176° South  Level Estimated
Mon 08:42:00 AM 24.3928 2.1351 176° South  Level Estimated
Mon 08:43:00 AM 24.2748 2.1438 176° South  Level Estimated
Mon 08:44:00 AM 24.1569 2.1525 176° South  Level Estimated
Mon 08:45:00 AM 24.0390 2.1611 176° South  Level Estimated
Mon 08:46:00 AM 23.9210 2.1698 176° South  Level Estimated
Mon 08:47:00 AM 23.8031 2.1784 176° South  Level Estimated
Mon 08:48:00 AM 23.6852 2.1870 176° South  Level Estimated
Mon 08:49:00 AM 23.5672 2.1956 176° South  Level Estimated
Mon 08:50:00 AM 23.4493 2.2042 176° South  Level Estimated
Mon 08:51:00 AM 23.3314 2.2128 176° South  Level Estimated
Mon 08:52:00 AM 23.2134 2.2213 176° South  Level Estimated
Mon 08:53:00 AM 23.0955 2.2299 176° South  Level Estimated
Mon 08:54:00 AM 22.9775 2.2384 176° South  Level Estimated
Mon 08:55:00 AM 22.8596 2.2469 176° South  Level Estimated
Mon 08:56:00 AM 22.7416 2.2554 176° South  Level Estimated
Mon 08:57:00 AM 22.6237 2.2639 176° South  Level Estimated
Mon 08:58:00 AM 22.5058 2.2724 176° South  Level Estimated
Mon 08:59:00 AM 22.3878 2.2808 176° South  Level Estimated
Mon 09:00:00 AM 22.2699 2.2893 176° South  Level Estimated
Mon 09:01:00 AM 22.1520 2.2977 176° South  Level Estimated
Mon 09:02:00 AM 22.0340 2.3061 176° South  Level Estimated
Mon 09:03:00 AM 21.9161 2.3145 176° South  Level Estimated
Mon 09:04:00 AM 21.7981 2.3229 176° South  Level Estimated
Mon 09:05:00 AM 21.6802 2.3312 176° South  Level Estimated
Mon 09:06:00 AM 21.5623 2.3396 176° South  Level Estimated
Mon 09:07:00 AM 21.4443 2.3479 176° South  Level Estimated
Mon 09:08:00 AM 21.3264 2.3563 176° South  Level Estimated
Mon 09:09:00 AM 21.2084 2.3646 176° South  Level Estimated
Mon 09:10:00 AM 21.0905 2.3729 176° South  Level Estimated
Mon 09:11:00 AM 20.9725 2.3812 176° South  Level Estimated
Mon 09:12:00 AM 20.8546 2.3895 176° South  Level Estimated
Mon 09:13:00 AM 20.7366 2.3977 176° South  Level Estimated
Mon 09:14:00 AM 20.6187 2.4060 176° South  Level Estimated
Mon 09:15:00 AM 20.5007 2.4142 176° South  Level Estimated
Mon 09:16:00 AM 20.3828 2.4224 176° South  Level Estimated
Mon 09:17:00 AM 20.2648 2.4306 176° South  Level Estimated
Mon 09:18:00 AM 20.1469 2.4388 176° South  Level Estimated
Mon 09:19:00 AM 20.0289 2.4470 176° South  Level Estimated
Mon 09:20:00 AM 19.9110 2.4552 176° South  Level Estimated
Mon 09:21:00 AM 19.7930 2.4634 176° South  Level Estimated
Mon 09:22:00 AM 19.6751 2.4715 176° South  Level Estimated
Mon 09:23:00 AM 19.5571 2.4797 176° South  Level Estimated
Mon 09:24:00 AM 19.4392 2.4878 176° South  Level Estimated
Mon 09:25:00 AM 19.3212 2.4959 176° South  Level Estimated
Mon 09:26:00 AM 19.2033 2.5040 176° South  Level Estimated
Mon 09:27:00 AM 19.0853 2.5121 176° South  Level Estimated
Mon 09:28:00 AM 18.9674 2.5202 176° South  Level Estimated
Mon 09:29:00 AM 18.8494 2.5282 176° South  Level Estimated
Mon 09:30:00 AM 18.7315 2.5363 176° South  Level Estimated
Mon 09:31:00 AM 18.6135 2.5443 176° South  Level Estimated
Mon 09:32:00 AM 18.4956 2.5524 176° South  Level Estimated
Mon 09:33:00 AM 18.3776 2.5604 176° South  Level Estimated
Mon 09:34:00 AM 18.2597 2.5684 176° South  Level Estimated
Mon 09:35:00 AM 18.1417 2.5764 176° South  Level Estimated
Mon 09:36:00 AM 18.0238 2.5844 176° South  Level Estimated
Mon 09:37:00 AM 17.9058 2.5924 176° South  Level Estimated
Mon 09:38:00 AM 17.7879 2.6003 176° South  Level Estimated
Mon 09:39:00 AM 17.6699 2.6083 176° South  Level Estimated
Mon 09:40:00 AM 17.5520 2.6163 176° South  Level Estimated
Mon 09:41:00 AM 17.4340 2.6242 176° South  Level Estimated
Mon 09:42:00 AM 17.3160 2.6321 176° South  Level Estimated
Mon 09:43:00 AM 17.1981 2.6400 176° South  Level Estimated
Mon 09:44:00 AM 17.0801 2.6479 176° South  Level Estimated
Mon 09:45:00 AM 16.9622 2.6558 176° South  Level Estimated
Mon 09:46:00 AM 16.8442 2.6637 176° South  Level Estimated
Mon 09:47:00 AM 16.7262 2.6716 176° South  Level Estimated
Mon 09:48:00 AM 16.6083 2.6795 176° South  Level Estimated
Mon 09:49:00 AM 16.4903 2.6874 176° South  Level Estimated
Mon 09:50:00 AM 16.3724 2.6952 176° South  Level Estimated
Mon 09:51:00 AM 16.2544 2.7030 176° South  Level Estimated
Mon 09:52:00 AM 16.1364 2.7109 176° South  Level Estimated
Mon 09:53:00 AM 16.0185 2.7187 176° South  Level Estimated
Mon 09:54:00 AM 15.9005 2.7265 176° South  Level Estimated
Mon 09:55:00 AM 15.7826 2.7343 176° South  Level Estimated
Mon 09:56:00 AM 15.6646 2.7421 176° South  Level Estimated
Mon 09:57:00 AM 15.5466 2.7499 176° South  Level Estimated
Mon 09:58:00 AM 15.4287 2.7576 176° South  Level Estimated
Mon 09:59:00 AM 15.3107 2.7654 176° South  Level Estimated
Mon 10:00:00 AM 15.1928 2.7732 176° South  Level Estimated
Mon 10:01:00 AM 15.0748 2.7809 176° South  Level Estimated
Mon 10:02:00 AM 14.9569 2.7887 176° South  Level Estimated
Mon 10:03:00 AM 14.8389 2.7964 176° South  Level Estimated
Mon 10:04:00 AM 14.7209 2.8041 176° South  Level Estimated
Mon 10:05:00 AM 14.6030 2.8118 176° South  Level Estimated
Mon 10:06:00 AM 14.4850 2.8195 176° South  Level Estimated
Mon 10:07:00 AM 14.3671 2.8272 176° South  Level Estimated
Mon 10:08:00 AM 14.2491 2.8349 176° South  Level Estimated
Mon 10:09:00 AM 14.1311 2.8426 176° South  Level Estimated
Mon 10:10:00 AM 14.0132 2.8503 176° South  Level Estimated
Mon 10:11:00 AM 13.8952 2.8579 176° South  Level Estimated
Mon 10:12:00 AM 13.7773 2.8656 176° South  Level Estimated
Mon 10:13:00 AM 13.6593 2.8733 176° South  Level Estimated
Mon 10:14:00 AM 13.5413 2.8809 176° South  Level Estimated
Mon 10:15:00 AM 13.4234 2.8885 176° South  Level Estimated
Mon 10:16:00 AM 13.3054 2.8962 176° South  Level Estimated
Mon 10:17:00 AM 13.1874 2.9038 176° South  Level Estimated
Mon 10:18:00 AM 13.0695 2.9114 176° South  Level Estimated
Mon 10:19:00 AM 12.9515 2.9190 176° South  Level Estimated
Mon 10:20:00 AM 12.8335 2.9266 176° South  Level Estimated
Mon 10:21:00 AM 12.7155 2.9342 176° South  Level Estimated
Mon 10:22:00 AM 12.5976 2.9418 176° South  Level Estimated
Mon 10:23:00 AM 12.4796 2.9494 176° South  Level Estimated
Mon 10:24:00 AM 12.3616 2.9569 176° South  Level Estimated
Mon 10:25:00 AM 12.2437 2.9645 176° South  Level Estimated
Mon 10:26:00 AM 12.1257 2.9720 176° South  Level Estimated
Mon 10:27:00 AM 12.0077 2.9796 176° South  Level Estimated
Mon 10:28:00 AM 11.8897 2.9871 176° South  Level Estimated
Mon 10:29:00 AM 11.7718 2.9947 176° South  Level Estimated
Mon 10:30:00 AM 11.6538 3.0022 176° South  Level Estimated
Mon 10:31:00 AM 11.5358 3.0097 176° South  Level Estimated
Mon 10:32:00 AM 11.4179 3.0173 176° South  Level Estimated
Mon 10:33:00 AM 11.2999 3.0248 176° South  Level Estimated
Mon 10:34:00 AM 11.1819 3.0323 176° South  Level Estimated
Mon 10:35:00 AM 11.0640 3.0398 176° South  Level Estimated
Mon 10:36:00 AM 10.9460 3.0473 176° South  Level Estimated
Mon 10:37:00 AM 10.8280 3.0547 176° South  Level Estimated
Mon 10:38:00 AM 10.7100 3.0622 176° South  Level Estimated
Mon 10:39:00 AM 10.5921 3.0697 176° South  Level Estimated
Mon 10:40:00 AM 10.4741 3.0772 176° South  Level Estimated
Mon 10:41:00 AM 10.3561 3.0846 176° South  Level Estimated
Mon 10:42:00 AM 10.2382 3.0921 176° South  Level Estimated
Mon 10:43:00 AM 10.1202 3.0996 176° South  Level Estimated
Mon 10:44:00 AM 10.0022 3.1070 176° South  Level Estimated
Mon 10:45:00 AM 9.8843 3.1144 176° South  Level Estimated
Mon 10:46:00 AM 9.7663 3.1219 176° South  Level Estimated
Mon 10:47:00 AM 9.6483 3.1293 176° South  Level Estimated
Mon 10:48:00 AM 9.5303 3.1367 176° South  Level Estimated
Mon 10:49:00 AM 9.4124 3.1442 176° South  Level Estimated
Mon 10:50:00 AM 9.2944 3.1516 176° South  Level Estimated
Mon 10:51:00 AM 9.1764 3.1590 176° South  Level Estimated
Mon 10:52:00 AM 9.0585 3.1664 176° South  Level Estimated
Mon 10:53:00 AM 8.9405 3.1738 176° South  Level Estimated
Mon 10:54:00 AM 8.8225 3.1812 176° South  Level Estimated
Mon 10:55:00 AM 8.7046 3.1886 176° South  Level Estimated
Mon 10:56:00 AM 8.5866 3.1960 176° South  Level Estimated
Mon 10:57:00 AM 8.4686 3.2034 176° South  Level Estimated
Mon 10:58:00 AM 8.3506 3.2107 176° South  Level Estimated
Mon 10:59:00 AM 8.2327 3.2181 176° South  Level Estimated
Mon 11:00:00 AM 8.1147 3.2255 176° South  Level Estimated
Mon 11:01:00 AM 7.9967 3.2329 176° South  Level Estimated
Mon 11:02:00 AM 7.8788 3.2402 176° South  Level Estimated
Mon 11:03:00 AM 7.7608 3.2476 176° South  Level Estimated
Mon 11:04:00 AM 7.6428 3.2549 176° South  Level Estimated
Mon 11:05:00 AM 7.5249 3.2623 176° South  Level Estimated
Mon 11:06:00 AM 7.4069 3.2696 176° South  Level Estimated
Mon 11:07:00 AM 7.2889 3.2770 176° South  Level Estimated
Mon 11:08:00 AM 7.1709 3.2843 176° South  Level Estimated
Mon 11:09:00 AM 7.0530 3.2916 176° South  Level Estimated
Mon 11:10:00 AM 6.9350 3.2990 176° South  Level Estimated
Mon 11:11:00 AM 6.8170 3.3063 176° South  Level Estimated
Mon 11:12:00 AM 6.6991 3.3136 176° South  Level Estimated
Mon 11:13:00 AM 6.5811 3.3209 176° South  Level Estimated
Mon 11:14:00 AM 6.5774 3.3212 177° South  Level Estimated

Login

Don't have an account? Register now (free) for customized features, flight alerts, and more!